Time;durP1;ratioP1;P1;durP2;ratioP2;P2;SDS_P1;SDS_P2;PMS_P1;PMS_P2;Temp;Humidity;BMP_temperature;BMP_pressure;BME280_temperature;BME280_humidity;BME280_pressure;Samples;Min_cycle;Max_cycle;Signal;HPM_P1;HPM_P2
2022/03/17 00:01:23;;;;;;;;;5.67;5.67;;;;;12.63;100.00;101728.06;4993069;28;44951;-79
2022/03/17 00:03:49;;;;;;;;;7.67;7.67;;;;;12.64;100.00;101738.00;4975812;28;47867;-78
2022/03/17 00:06:14;;;;;;;;;8.33;8.00;;;;;12.44;100.00;101710.06;4992223;28;45086;-79
2022/03/17 00:08:40;;;;;;;;;8.00;8.00;;;;;12.62;100.00;101750.84;4992330;28;45166;-79
2022/03/17 00:11:06;;;;;;;;;11.00;7.00;;;;;12.70;100.00;101756.75;4991969;28;45345;-79
2022/03/17 00:13:31;;;;;;;;;8.00;8.00;;;;;12.69;100.00;101763.16;4992154;28;45552;-78
2022/03/17 00:15:57;;;;;;;;;11.67;11.67;;;;;12.67;100.00;101767.81;4992390;28;45015;-78
2022/03/17 00:18:23;;;;;;;;;8.00;8.00;;;;;12.61;100.00;101773.66;4992060;28;44985;-78
2022/03/17 00:20:48;;;;;;;;;14.00;14.00;;;;;12.61;100.00;101785.44;4992409;28;45138;-78
2022/03/17 00:23:14;;;;;;;;;10.00;10.00;;;;;12.59;100.00;101784.66;4992482;28;45273;-78
2022/03/17 00:25:39;;;;;;;;;14.00;13.67;;;;;12.59;100.00;101783.78;4989970;28;45078;-78
2022/03/17 00:28:04;;;;;;;;;16.67;15.00;;;;;12.57;100.00;101786.59;4974137;28;45173;-78
2022/03/17 00:30:30;;;;;;;;;14.67;14.67;;;;;12.56;100.00;101792.13;4991788;28;45110;-79
2022/03/17 00:32:55;;;;;;;;;14.33;12.00;;;;;12.54;100.00;101796.81;4975352;28;46419;-78
2022/03/17 00:35:36;;;;;;;;;19.00;15.33;;;;;12.53;100.00;101803.25;4991382;28;45087;-78
2022/03/17 00:38:03;;;;;;;;;13.33;12.33;;;;;12.54;100.00;101802.28;4992171;28;45200;-78
2022/03/17 00:40:29;;;;;;;;;16.00;13.67;;;;;12.28;100.00;101771.94;4991401;28;45151;-78
2022/03/17 00:42:55;;;;;;;;;17.67;16.67;;;;;12.53;100.00;101814.16;4991349;28;45618;-78
2022/03/17 00:45:23;;;;;;;;;19.67;18.00;;;;;12.47;100.00;101807.22;4990267;28;45257;-78
2022/03/17 00:47:48;;;;;;;;;16.67;16.67;;;;;12.50;100.00;101825.22;4991280;28;45173;-79
2022/03/17 00:50:13;;;;;;;;;15.33;15.33;;;;;12.28;100.00;101791.03;4991597;28;45088;-78
2022/03/17 00:52:39;;;;;;;;;18.00;16.00;;;;;12.49;100.00;101826.22;4974038;28;47857;-79
2022/03/17 00:55:06;;;;;;;;;16.67;16.67;;;;;12.31;100.00;101803.59;4973053;28;45086;-79
2022/03/17 00:57:32;;;;;;;;;21.33;19.00;;;;;12.41;100.00;101813.00;4990306;28;45188;-79
2022/03/17 00:59:58;;;;;;;;;21.67;18.67;;;;;12.20;100.00;101788.72;4986277;28;45158;-78
2022/03/17 01:02:23;;;;;;;;;21.00;17.00;;;;;12.45;100.00;101829.09;4985324;28;45159;-79
2022/03/17 01:04:48;;;;;;;;;18.00;17.00;;;;;12.39;100.00;101825.84;4990484;28;45225;-78
2022/03/17 01:07:14;;;;;;;;;24.00;22.00;;;;;12.33;100.00;101832.53;4991572;28;45027;-79
2022/03/17 01:09:39;;;;;;;;;21.33;19.33;;;;;12.39;100.00;101831.31;4990396;28;45206;-78
2022/03/17 01:12:04;;;;;;;;;20.00;20.00;;;;;12.30;100.00;101826.38;4990166;28;45700;-79
2022/03/17 01:14:30;;;;;;;;;25.75;23.25;;;;;12.43;100.00;101852.88;4990226;28;45207;-82
2022/03/17 01:16:55;;;;;;;;;26.00;19.75;;;;;12.38;100.00;101844.06;4989673;28;45330;-79
2022/03/17 01:19:21;;;;;;;;;18.67;17.67;;;;;12.39;100.00;101858.59;4988428;28;45085;-79
2022/03/17 01:21:47;;;;;;;;;26.67;20.00;;;;;12.32;100.00;101846.28;4989103;28;45119;-80
2022/03/17 01:24:13;;;;;;;;;22.67;21.33;;;;;12.02;100.00;101818.91;4989292;28;45212;-78
2022/03/17 01:26:39;;;;;;;;;23.00;22.00;;;;;12.26;100.00;101858.38;4990373;28;45060;-79
2022/03/17 01:29:04;;;;;;;;;25.00;22.67;;;;;12.22;100.00;101862.28;4991118;28;45071;-78
2022/03/17 01:31:31;;;;;;;;;23.33;22.67;;;;;12.03;100.00;101829.69;4990278;28;50526;-79
2022/03/17 01:33:57;;;;;;;;;20.25;20.00;;;;;12.24;100.00;101870.34;4990617;28;45146;-79
2022/03/17 01:36:23;;;;;;;;;25.33;21.00;;;;;12.19;100.00;101878.78;4973143;28;45142;-79
2022/03/17 01:38:48;;;;;;;;;21.67;18.00;;;;;11.93;100.00;101851.13;4973374;28;45323;-79
2022/03/17 01:41:14;;;;;;;;;23.00;22.33;;;;;11.81;100.00;101826.34;4990389;28;45737;-78
2022/03/17 01:43:39;;;;;;;;;22.75;21.25;;;;;11.78;100.00;101821.09;4987923;28;45724;-78
2022/03/17 01:46:05;;;;;;;;;24.75;23.25;;;;;12.16;100.00;101882.56;4990390;28;45043;-78
2022/03/17 01:48:30;;;;;;;;;27.25;22.50;;;;;12.15;100.00;101886.25;4990712;28;44933;-78
2022/03/17 01:50:55;;;;;;;;;19.50;17.25;;;;;12.15;100.00;101893.56;4989664;28;45563;-78
2022/03/17 01:53:24;;;;;;;;;20.00;18.00;;;;;11.97;100.00;101859.16;4986461;28;45903;-78
2022/03/17 01:55:50;;;;;;;;;20.33;19.00;;;;;12.14;100.00;101887.22;4990458;28;45170;-79
2022/03/17 01:58:17;;;;;;;;;20.25;20.25;;;;;12.15;100.00;101899.88;4994813;28;45084;-77
2022/03/17 02:00:43;;;;;;;;;26.00;21.00;;;;;12.00;100.00;101884.38;4995122;28;45210;-78
2022/03/17 02:03:08;;;;;;;;;24.75;21.75;;;;;12.11;100.00;101911.91;4990176;28;45114;-78
2022/03/17 02:05:34;;;;;;;;;22.00;18.67;;;;;12.05;100.00;101906.81;4990589;28;45186;-79
2022/03/17 02:08:00;;;;;;;;;18.00;16.67;;;;;12.09;100.00;101902.06;4973360;28;45315;-78
2022/03/17 02:10:26;;;;;;;;;22.67;19.00;;;;;12.11;100.00;101911.03;4990315;28;46276;-78
2022/03/17 02:13:09;;;;;;;;;21.00;19.67;;;;;11.78;100.00;101856.50;4990957;28;45055;-79
2022/03/17 02:15:35;;;;;;;;;23.33;21.67;;;;;11.92;100.00;101890.25;4993879;28;45098;-77
2022/03/17 02:18:07;;;;;;;;;23.67;19.00;;;;;12.10;100.00;101917.47;4993662;28;45274;-77
2022/03/17 02:20:33;;;;;;;;;19.67;19.67;;;;;12.12;100.00;101934.63;4992686;28;46589;-78
2022/03/17 02:25:57;;;;;;;;;19.75;16.75;;;;;12.09;100.00;101943.84;4993819;28;45098;-78
2022/03/17 02:28:25;;;;;;;;;16.33;16.33;;;;;12.08;100.00;101947.53;4993652;28;45059;-78
2022/03/17 02:30:50;;;;;;;;;20.25;20.25;;;;;12.03;100.00;101938.72;4992903;28;45734;-78
2022/03/17 02:33:16;;;;;;;;;23.67;20.67;;;;;11.67;100.00;101885.22;4974727;28;45204;-77
2022/03/17 02:35:42;;;;;;;;;19.50;19.50;;;;;12.09;100.00;101959.31;4992213;28;45508;-79
2022/03/17 02:38:08;;;;;;;;;20.33;17.67;;;;;11.94;100.00;101929.19;4993514;28;45009;-77
2022/03/17 02:40:35;;;;;;;;;18.33;17.00;;;;;12.08;100.00;101952.09;4992000;28;47011;-78
2022/03/17 02:43:04;;;;;;;;;25.00;22.00;;;;;11.90;100.00;101922.13;4975333;28;44922;-78
2022/03/17 02:45:30;;;;;;;;;19.67;18.00;;;;;12.10;100.00;101955.63;4992795;28;45161;-78
2022/03/17 02:47:56;;;;;;;;;18.67;18.00;;;;;11.88;100.00;101912.31;4991951;28;45174;-77
2022/03/17 02:50:22;;;;;;;;;19.75;18.75;;;;;12.11;100.00;101955.53;4992989;28;45332;-78
2022/03/17 02:52:47;;;;;;;;;20.33;18.00;;;;;11.88;100.00;101915.03;4992143;28;45207;-77
2022/03/17 02:55:16;;;;;;;;;25.50;24.75;;;;;11.78;100.00;101917.31;4993713;28;45020;-77
2022/03/17 02:57:44;;;;;;;;;20.33;17.67;;;;;12.08;100.00;101977.53;4992650;28;45176;-78
2022/03/17 03:00:11;;;;;;;;;16.33;15.33;;;;;12.00;100.00;101962.53;4992547;28;45130;-79
2022/03/17 03:02:37;;;;;;;;;19.00;17.00;;;;;12.03;100.00;101965.97;4991138;28;45153;-78
2022/03/17 03:05:04;;;;;;;;;20.00;18.33;;;;;12.00;100.00;101967.97;4978364;28;45088;-77
2022/03/17 03:07:30;;;;;;;;;19.67;17.33;;;;;11.25;100.00;101857.50;4987293;28;45091;-80
2022/03/17 03:09:55;;;;;;;;;19.00;16.00;;;;;11.97;100.00;101976.34;4992838;28;45119;-78
2022/03/17 03:12:21;;;;;;;;;15.67;15.67;;;;;11.22;100.00;101857.69;4993109;28;44925;-79
2022/03/17 03:14:47;;;;;;;;;17.33;16.33;;;;;11.79;100.00;101979.03;4992479;28;45228;-79
2022/03/17 03:17:13;;;;;;;;;13.33;13.33;;;;;11.87;100.00;101992.28;4991512;28;45198;-79
2022/03/17 03:19:38;;;;;;;;;16.67;16.67;;;;;11.89;100.00;102002.13;4994105;28;45050;-78
2022/03/17 03:22:03;;;;;;;;;15.33;13.67;;;;;11.82;100.00;101980.75;4974177;28;45040;-78
2022/03/17 03:24:29;;;;;;;;;13.67;13.33;;;;;11.87;100.00;102001.34;4974713;28;45293;-78
2022/03/17 03:26:54;;;;;;;;;16.00;15.33;;;;;11.61;100.00;101950.91;4973025;28;45124;-79
2022/03/17 03:29:22;;;;;;;;;16.00;15.33;;;;;11.83;100.00;101998.88;4982771;28;45071;-78
2022/03/17 03:31:52;;;;;;;;;16.00;14.67;;;;;11.80;100.00;102009.88;4981746;28;45047;-79
2022/03/17 03:34:19;;;;;;;;;15.33;13.00;;;;;11.72;100.00;101999.38;4992437;28;44928;-79
2022/03/17 03:39:28;;;;;;;;;14.67;14.67;;;;;11.69;100.00;102021.34;4991876;28;45339;-79
2022/03/17 03:41:55;;;;;;;;;15.00;14.00;;;;;11.64;100.00;102020.69;4990872;28;45300;-80
2022/03/17 03:44:20;;;;;;;;;16.25;13.00;;;;;11.39;100.00;101972.91;4974802;28;45424;-79
2022/03/17 03:46:45;;;;;;;;;16.33;14.33;;;;;11.63;100.00;102022.53;4991259;28;44995;-80
2022/03/17 03:49:11;;;;;;;;;12.00;12.00;;;;;11.64;100.00;102034.31;4991728;28;45091;-79
2022/03/17 03:51:36;;;;;;;;;12.67;11.67;;;;;11.67;100.00;102043.22;4975365;28;45350;-79
2022/03/17 03:54:15;;;;;;;;;14.00;12.33;;;;;11.59;100.00;102034.53;4974943;28;44928;-79
2022/03/17 03:56:51;;;;;;;;;19.50;18.00;;;;;11.54;100.00;102050.22;4973132;28;45178;-79
2022/03/17 03:59:23;;;;;;;;;20.75;17.00;;;;;11.57;100.00;102066.44;4976477;28;45602;-78
2022/03/17 04:02:00;;;;;;;;;16.67;16.00;;;;;11.53;100.00;102067.53;4991770;28;45070;-79
2022/03/17 04:04:27;;;;;;;;;14.67;12.00;;;;;11.51;100.00;102076.75;4974001;28;45183;-79
2022/03/17 04:06:54;;;;;;;;;12.33;10.00;;;;;11.42;100.00;102067.19;4992154;28;45043;-80
2022/03/17 04:09:26;;;;;;;;;13.25;12.25;;;;;11.49;100.00;102082.25;4991362;28;45636;-79
2022/03/17 04:11:52;;;;;;;;;14.00;11.00;;;;;11.43;100.00;102085.28;4991861;28;45029;-79
2022/03/17 04:14:17;;;;;;;;;14.67;12.00;;;;;11.34;100.00;102080.28;4992159;28;44913;-76
2022/03/17 04:16:44;;;;;;;;;11.67;9.00;;;;;11.33;100.00;102087.59;4992450;28;45046;-77
2022/03/17 04:19:10;;;;;;;;;12.67;10.33;;;;;11.21;100.00;102077.31;4992086;28;45491;-77
2022/03/17 04:21:36;;;;;;;;;11.33;9.33;;;;;11.33;100.00;102109.38;4991320;28;45147;-77
2022/03/17 04:24:02;;;;;;;;;9.33;9.33;;;;;11.12;100.00;102072.28;4992509;28;45028;-77
2022/03/17 04:26:27;;;;;;;;;12.67;10.00;;;;;11.27;100.00;102106.94;4991199;28;45127;-77
2022/03/17 04:28:53;;;;;;;;;14.67;11.67;;;;;11.22;100.00;102116.28;4992171;28;45485;-77
2022/03/17 04:31:20;;;;;;;;;10.00;10.00;;;;;11.12;100.00;102104.97;4991826;28;45205;-77
2022/03/17 04:33:46;;;;;;;;;10.67;10.00;;;;;10.82;100.00;102063.75;4990579;28;45120;-78
2022/03/17 04:36:11;;;;;;;;;12.33;11.00;;;;;11.14;100.00;102124.81;4989243;28;45304;-78
2022/03/17 04:38:36;;;;;;;;;8.67;8.67;;;;;11.11;100.00;102131.28;4992020;28;45820;-78
2022/03/17 04:41:02;;;;;;;;;11.33;10.67;;;;;11.08;100.00;102133.28;4990827;28;45088;-77
2022/03/17 04:43:28;;;;;;;;;9.00;9.00;;;;;10.87;100.00;102110.66;4973874;28;44933;-77
2022/03/17 04:45:53;;;;;;;;;9.33;9.33;;;;;11.01;100.00;102140.84;4991982;28;45061;-76
2022/03/17 04:48:18;;;;;;;;;12.33;9.67;;;;;10.93;100.00;102126.72;4991492;28;46732;-77
2022/03/17 04:50:44;;;;;;;;;10.00;10.00;;;;;10.89;100.00;102125.94;4985387;28;45114;-78
2022/03/17 04:53:27;;;;;;;;;11.67;10.00;;;;;11.01;100.00;102140.84;4972728;28;45540;-79
2022/03/17 04:56:14;;;;;;;;;10.00;8.33;;;;;9.67;100.00;101934.91;4990064;28;44965;-80
2022/03/17 04:58:42;;;;;;;;;11.33;7.33;;;;;10.59;100.00;102105.59;4990015;28;47076;-79
2022/03/17 05:01:09;;;;;;;;;8.00;5.00;;;;;10.88;100.00;102161.41;4989650;28;45086;-78
2022/03/17 05:03:36;;;;;;;;;7.67;5.33;;;;;10.90;100.00;102168.56;4988721;28;45007;-79
2022/03/17 05:06:02;;;;;;;;;6.00;5.00;;;;;10.93;100.00;102177.53;4989649;28;45145;-79
2022/03/17 05:08:27;;;;;;;;;8.00;6.00;;;;;10.87;100.00;102155.09;4989765;28;45191;-79
2022/03/17 05:10:53;;;;;;;;;10.00;6.00;;;;;10.94;100.00;102177.44;4985051;28;45149;-79
2022/03/17 05:13:20;;;;;;;;;4.67;4.67;;;;;10.88;100.00;102170.44;4970277;28;44884;-79
2022/03/17 05:15:47;;;;;;;;;6.00;6.00;;;;;10.30;100.00;102093.34;4968729;28;45339;-80
2022/03/17 05:18:13;;;;;;;;;9.33;5.00;;;;;10.91;100.00;102196.66;4971742;28;47274;-79
2022/03/17 05:20:40;;;;;;;;;6.00;6.00;;;;;10.66;100.00;102145.19;4971500;28;45166;-79
2022/03/17 05:23:11;;;;;;;;;9.33;6.00;;;;;10.73;100.00;102168.44;4976651;28;45132;-79
2022/03/17 05:25:38;;;;;;;;;6.00;6.00;;;;;10.74;100.00;102172.03;4982802;28;44992;-79
2022/03/17 05:28:04;;;;;;;;;6.00;5.00;;;;;10.86;100.00;102205.03;4990213;28;45793;-80
2022/03/17 05:30:30;;;;;;;;;6.00;6.00;;;;;10.88;100.00;102207.66;4988995;28;45290;-79
2022/03/17 05:32:56;;;;;;;;;3.67;3.67;;;;;10.81;100.00;102204.34;4990947;28;44984;-79
2022/03/17 05:35:23;;;;;;;;;5.00;5.00;;;;;10.87;100.00;102217.66;4989016;28;45182;-79
2022/03/17 05:37:50;;;;;;;;;5.00;5.00;;;;;10.26;100.00;102124.31;4987738;28;46072;-80
2022/03/17 05:40:17;;;;;;;;;5.33;5.33;;;;;10.86;100.00;102226.78;4988339;28;45237;-79
2022/03/17 05:42:48;;;;;;;;;8.00;6.00;;;;;10.72;100.00;102204.75;4989750;28;44941;-79
2022/03/17 05:45:17;;;;;;;;;9.67;4.67;;;;;10.85;100.00;102226.88;4989188;28;45257;-79
2022/03/17 05:47:48;;;;;;;;;8.67;8.67;;;;;10.80;100.00;102224.34;4971045;28;46628;-79
2022/03/17 05:50:16;;;;;;;;;6.33;6.33;;;;;10.90;100.00;102235.72;4989793;28;44940;-79
2022/03/17 05:52:42;;;;;;;;;9.00;6.33;;;;;10.90;100.00;102247.47;4990255;28;45141;-80
2022/03/17 05:55:26;;;;;;;;;6.33;6.33;;;;;10.83;100.00;102229.63;4971325;28;45513;-79
2022/03/17 05:57:54;;;;;;;;;8.33;6.33;;;;;10.77;100.00;102237.19;4987746;28;45492;-79
2022/03/17 06:00:25;;;;;;;;;6.00;6.00;;;;;10.70;100.00;102222.97;4988940;28;45196;-80
2022/03/17 06:02:51;;;;;;;;;7.00;6.67;;;;;10.91;100.00;102259.22;4989233;28;45253;-79
2022/03/17 06:05:17;;;;;;;;;12.00;8.00;;;;;10.84;100.00;102253.16;4988338;28;45590;-79
2022/03/17 06:07:44;;;;;;;;;3.00;2.67;;;;;10.91;100.00;102271.00;4988103;28;45953;-79
2022/03/17 06:10:15;;;;;;;;;10.67;8.33;;;;;10.76;100.00;102251.75;4988289;28;44940;-79
2022/03/17 06:12:41;;;;;;;;;7.00;7.00;;;;;10.85;100.00;102259.50;4988904;28;45065;-78
2022/03/17 06:15:07;;;;;;;;;7.67;7.33;;;;;10.65;100.00;102249.50;4988098;28;45171;-78
2022/03/17 06:17:44;;;;;;;;;7.00;6.00;;;;;10.84;100.00;102304.84;4988114;28;45823;-77
2022/03/17 06:20:12;;;;;;;;;8.33;8.33;;;;;10.83;100.00;102299.47;4987351;28;45091;-80
2022/03/17 06:22:43;;;;;;;;;4.67;4.67;;;;;10.60;100.00;102263.28;4989089;28;45180;-77
2022/03/17 06:25:10;;;;;;;;;11.00;7.00;;;;;10.39;100.00;102227.03;4987820;28;45157;-76
2022/03/17 06:27:36;;;;;;;;;6.67;5.67;;;;;10.84;100.00;102309.41;4987503;28;45274;-79
2022/03/17 06:30:07;;;;;;;;;10.00;8.33;;;;;9.36;100.00;102086.41;4987520;28;44941;-79
2022/03/17 06:32:33;;;;;;;;;8.00;7.00;;;;;9.73;100.00;102135.59;4989333;28;44937;-80
2022/03/17 06:34:59;;;;;;;;;7.00;7.00;;;;;9.57;100.00;102135.31;4988953;28;45346;-79
2022/03/17 06:37:25;;;;;;;;;5.00;5.00;;;;;10.73;100.00;102331.63;4988339;28;45138;-77
2022/03/17 06:39:50;;;;;;;;;5.67;4.67;;;;;9.49;100.00;102137.50;4987527;28;45242;-78
2022/03/17 06:42:15;;;;;;;;;5.33;4.00;;;;;8.90;100.00;102035.81;4988351;28;45295;-77
2022/03/17 06:44:41;;;;;;;;;6.67;5.00;;;;;10.75;100.00;102348.81;4970794;28;45363;-78
2022/03/17 06:47:06;;;;;;;;;5.00;3.33;;;;;10.71;100.00;102363.47;4987913;28;45412;-78
2022/03/17 06:49:31;;;;;;;;;6.00;5.00;;;;;10.72;100.00;102362.50;4984743;28;45017;-78
2022/03/17 06:51:58;;;;;;;;;5.33;4.00;;;;;10.32;100.00;102303.44;4983883;28;45206;-78
2022/03/17 06:54:24;;;;;;;;;9.00;5.67;;;;;10.49;100.00;102341.72;4986650;28;45524;-77
2022/03/17 06:56:49;;;;;;;;;4.00;4.00;;;;;10.64;100.00;102373.72;4987150;28;45563;-77
2022/03/17 06:59:15;;;;;;;;;6.33;5.00;;;;;10.67;100.00;102382.69;4985802;28;47052;-77
2022/03/17 07:01:40;;;;;;;;;6.33;5.00;;;;;10.52;100.00;102355.19;4988688;28;45471;-76
2022/03/17 07:04:06;;;;;;;;;6.00;5.00;;;;;9.12;100.00;102129.91;5000366;28;45455;-77
2022/03/17 07:06:31;;;;;;;;;4.67;4.00;;;;;10.55;100.00;102381.38;5011293;28;45571;-77
2022/03/17 07:08:56;;;;;;;;;5.00;5.00;;;;;10.62;100.00;102397.38;4994037;28;45157;-76
2022/03/17 07:11:22;;;;;;;;;3.67;3.67;;;;;10.57;100.00;102401.22;4990727;28;45504;-78
2022/03/17 07:13:47;;;;;;;;;8.67;3.33;;;;;10.05;100.00;102322.63;4975920;28;45501;-77
2022/03/17 07:16:13;;;;;;;;;6.33;4.67;;;;;9.91;100.00;102305.09;4992842;28;45901;-77
2022/03/17 07:18:38;;;;;;;;;45.50;37.50;;;;;10.51;100.00;102415.97;4982157;28;45283;-76
2022/03/17 07:21:04;;;;;;;;;7.33;5.00;;;;;10.38;100.00;102393.78;4984921;28;45707;-77
2022/03/17 07:23:29;;;;;;;;;4.33;4.33;;;;;10.44;100.00;102413.53;4977103;28;45646;-79
2022/03/17 07:25:54;;;;;;;;;3.33;3.33;;;;;10.50;100.00;102427.78;4956639;28;47268;-78
2022/03/17 07:28:21;;;;;;;;;3.00;3.00;;;;;10.48;100.00;102426.94;4977687;28;45330;-79
2022/03/17 07:30:47;;;;;;;;;5.00;3.67;;;;;10.45;100.00;102437.09;4970798;28;45266;-78
2022/03/17 07:33:12;;;;;;;;;6.67;5.33;;;;;10.35;100.00;102440.16;4994846;28;45194;-78
2022/03/17 07:35:38;;;;;;;;;7.00;5.33;;;;;10.35;100.00;102451.03;4960448;28;45875;-78
2022/03/17 07:38:05;;;;;;;;;3.00;3.00;;;;;9.40;100.00;102290.75;4974827;28;45650;-79
2022/03/17 07:40:31;;;;;;;;;4.00;4.00;;;;;10.36;100.00;102449.19;4961649;28;45461;-78
2022/03/17 07:42:57;;;;;;;;;6.00;5.00;;;;;9.89;100.00;102367.66;4955330;28;45387;-80
2022/03/17 07:45:22;;;;;;;;;4.33;4.00;;;;;10.30;100.00;102444.88;4957486;28;45706;-78
2022/03/17 07:47:50;;;;;;;;;4.67;4.67;;;;;10.33;100.00;102458.34;4978216;28;45084;-79
2022/03/17 07:50:16;;;;;;;;;4.33;4.33;;;;;9.34;100.00;102294.56;4979889;28;45541;-78
2022/03/17 07:52:42;;;;;;;;;4.67;3.33;;;;;10.33;100.00;102460.19;4978196;28;45463;-79
2022/03/17 07:55:08;;;;;;;;;4.67;4.67;;;;;10.32;100.00;102466.56;4976295;28;45576;-78
2022/03/17 07:57:36;;;;;;;;;6.00;5.00;;;;;10.28;100.00;102454.91;4975725;28;45550;-78
2022/03/17 08:00:08;;;;;;;;;6.00;4.33;;;;;10.04;100.00;102434.97;4951130;28;45586;-77
2022/03/17 08:02:36;;;;;;;;;7.33;4.00;;;;;10.32;100.00;102489.19;4968575;28;44965;-77
2022/03/17 08:05:02;;;;;;;;;4.33;4.33;;;;;10.33;100.00;102488.25;4944807;28;46277;-79
2022/03/17 08:07:28;;;;;;;;;5.33;5.33;;;;;9.68;100.00;102385.63;4954358;28;45675;-78
2022/03/17 08:09:54;;;;;;;;;5.33;5.33;;;;;9.44;100.00;102334.94;4950975;28;45492;-79
2022/03/17 08:12:19;;;;;;;;;6.00;6.00;;;;;10.32;100.00;102488.31;4956627;28;45382;-78
2022/03/17 08:14:44;;;;;;;;;5.00;5.00;;;;;10.16;100.00;102470.78;4959785;28;45483;-79
2022/03/17 08:17:10;;;;;;;;;6.00;6.00;;;;;10.29;100.00;102502.00;4962730;28;45351;-79
2022/03/17 08:19:36;;;;;;;;;5.67;4.67;;;;;10.26;100.00;102513.91;4956332;28;45547;-78
2022/03/17 08:22:01;;;;;;;;;10.00;7.00;;;;;10.25;100.00;102513.97;4954589;28;45604;-78
2022/03/17 08:24:27;;;;;;;;;6.00;5.67;;;;;10.14;100.00;102511.63;4943944;28;46452;-78
2022/03/17 08:26:53;;;;;;;;;6.00;4.67;;;;;8.33;100.00;102210.47;4935232;28;45638;-77
2022/03/17 08:29:18;;;;;;;;;3.67;3.67;;;;;9.71;100.00;102428.06;4939428;28;45397;-77
2022/03/17 08:31:43;;;;;;;;;6.67;5.67;;;;;10.07;100.00;102494.63;4935157;28;45426;-78
2022/03/17 08:34:09;;;;;;;;;7.00;5.00;;;;;9.99;100.00;102493.16;4935520;28;46210;-77
2022/03/17 08:36:34;;;;;;;;;9.00;6.00;;;;;10.18;100.00;102515.09;4935627;28;45669;-77
2022/03/17 08:38:59;;;;;;;;;5.67;5.67;;;;;10.22;100.00;102535.78;4954680;28;45655;-77
2022/03/17 08:41:25;;;;;;;;;4.00;4.00;;;;;10.26;100.00;102545.63;4953910;28;45351;-78
2022/03/17 08:43:51;;;;;;;;;9.33;4.67;;;;;10.19;100.00;102544.03;4954564;28;45410;-78
2022/03/17 08:49:19;;;;;;;;;7.00;5.00;;;;;10.28;100.00;102569.09;4959148;28;45437;-78
2022/03/17 08:51:51;;;;;;;;;10.33;9.67;;;;;10.29;100.00;102575.41;4961112;28;45424;-79
2022/03/17 08:54:18;;;;;;;;;10.00;8.33;;;;;9.99;100.00;102509.47;4954104;28;46869;-79
2022/03/17 08:56:43;;;;;;;;;8.67;8.33;;;;;10.32;100.00;102576.19;4952348;28;45448;-79
2022/03/17 08:59:10;;;;;;;;;8.33;5.00;;;;;9.98;100.00;102526.69;4954817;28;45754;-78
2022/03/17 09:01:37;;;;;;;;;7.00;6.67;;;;;10.31;100.00;102592.56;4943937;28;46114;-79
2022/03/17 09:04:03;;;;;;;;;7.00;7.00;;;;;10.30;100.00;102594.41;4942246;28;46288;-79
2022/03/17 09:06:28;;;;;;;;;8.33;6.00;;;;;10.34;100.00;102595.16;4958249;28;45312;-79
2022/03/17 09:08:54;;;;;;;;;6.67;6.00;;;;;10.32;100.00;102597.94;4956077;28;45445;-79
2022/03/17 09:11:19;;;;;;;;;9.00;7.33;;;;;10.33;100.00;102601.53;4957270;28;45478;-78
2022/03/17 09:13:46;;;;;;;;;9.00;8.00;;;;;10.18;100.00;102573.06;4973092;28;46401;-77
2022/03/17 09:16:12;;;;;;;;;7.00;7.00;;;;;10.11;100.00;102557.91;4973452;28;45565;-82
2022/03/17 09:18:37;;;;;;;;;9.33;7.67;;;;;10.32;100.00;102607.94;4969129;28;45469;-77
2022/03/17 09:21:03;;;;;;;;;9.00;7.00;;;;;10.30;100.00;102601.69;4956425;28;45284;-78
2022/03/17 09:23:29;;;;;;;;;10.00;8.33;;;;;9.84;100.00;102524.50;4974767;28;45689;-78
2022/03/17 09:25:56;;;;;;;;;13.75;9.00;;;;;10.36;100.00;102605.06;4956373;28;45489;-79
2022/03/17 09:28:22;;;;;;;;;9.67;8.33;;;;;10.37;100.00;102616.81;4956966;28;45512;-78
2022/03/17 09:30:48;;;;;;;;;12.00;10.00;;;;;10.10;100.00;102570.63;4974144;28;45375;-78
2022/03/17 09:33:14;;;;;;;;;10.67;8.33;;;;;10.37;100.00;102620.41;4977160;28;45468;-78
2022/03/17 09:35:39;;;;;;;;;9.67;7.67;;;;;9.59;100.00;102492.75;4958382;28;45460;-79
2022/03/17 09:38:06;;;;;;;;;11.67;10.00;;;;;10.39;100.00;102626.72;4954940;28;45395;-78
2022/03/17 09:40:34;;;;;;;;;13.00;9.67;;;;;10.25;100.00;102592.81;4956173;28;45535;-79
2022/03/17 09:45:45;;;;;;;;;12.00;12.00;;;;;9.97;100.00;102538.50;4955128;28;45487;-78
2022/03/17 09:48:13;;;;;;;;;9.33;6.00;;;;;10.17;100.00;102601.19;4954706;28;45430;-80
2022/03/17 09:50:40;;;;;;;;;11.00;10.00;;;;;10.29;100.00;102624.34;4955325;28;45576;-78
2022/03/17 09:53:06;;;;;;;;;10.00;7.67;;;;;9.66;100.00;102517.84;4954279;28;45985;-78
2022/03/17 09:55:33;;;;;;;;;7.00;6.33;;;;;10.35;100.00;102640.47;4953724;28;45466;-78
2022/03/17 09:57:58;;;;;;;;;9.00;9.00;;;;;10.11;100.00;102601.41;4955147;28;45354;-77
2022/03/17 10:00:47;;;;;;;;;9.33;5.33;;;;;10.25;100.00;102633.56;4954101;28;45317;-79
2022/03/17 10:03:09;;;;;;;;;7.33;7.33;;;;;10.14;100.00;102615.78;4953709;28;46347;-78
2022/03/17 10:05:35;;;;;;;;;10.00;6.67;;;;;10.36;100.00;102655.81;4954069;28;45437;-79
2022/03/17 10:08:00;;;;;;;;;10.33;8.33;;;;;10.35;100.00;102660.38;4954424;28;45482;-79
2022/03/17 10:10:36;;;;;;;;;10.67;9.00;;;;;10.29;100.00;102649.72;4954712;28;45560;-79
2022/03/17 10:13:10;;;;;;;;;4.33;3.00;;;;;10.16;100.00;102618.44;4952805;28;48221;-79
2022/03/17 10:15:36;;;;;;;;;8.00;6.00;;;;;10.36;100.00;102655.81;4955339;28;45427;-78
2022/03/17 10:18:17;;;;;;;;;10.33;7.00;;;;;8.57;100.00;102342.50;4952171;28;45438;-79
2022/03/17 10:20:43;;;;;;;;;11.67;10.00;;;;;10.04;100.00;102589.88;4953635;28;45494;-79
2022/03/17 10:23:08;;;;;;;;;10.33;9.00;;;;;10.02;100.00;102583.59;4953167;28;45855;-78
2022/03/17 10:25:37;;;;;;;;;8.00;6.00;;;;;10.48;100.00;102668.97;4953536;28;45446;-79
2022/03/17 10:28:03;;;;;;;;;5.67;4.33;;;;;10.38;100.00;102657.53;4958680;28;45380;-78
2022/03/17 10:30:34;;;;;;;;;14.67;10.67;;;;;10.50;100.00;102685.25;4953496;28;45433;-79
2022/03/17 10:33:06;;;;;;;;;8.67;6.33;;;;;10.21;100.00;102631.88;4953675;28;45420;-79
2022/03/17 10:35:34;;;;;;;;;9.67;9.33;;;;;10.54;100.00;102679.66;4956449;28;45320;-79
2022/03/17 10:38:14;;;;;;;;;7.33;7.33;;;;;10.54;100.00;102679.66;4974316;28;45620;-78
2022/03/17 10:40:41;;;;;;;;;6.75;5.75;;;;;10.57;100.00;102695.84;4976514;28;45230;-79
2022/03/17 10:43:25;;;;;;;;;7.33;7.33;;;;;10.47;100.00;102679.91;4959237;28;47409;-79
2022/03/17 10:46:07;;;;;;;;;7.67;7.33;;;;;10.58;100.00;102696.72;4977195;28;45470;-79
2022/03/17 10:48:34;;;;;;;;;11.00;8.33;;;;;10.21;100.00;102638.19;4976950;28;45370;-79
2022/03/17 10:50:59;;;;;;;;;10.33;7.33;;;;;10.55;100.00;102702.28;4976585;28;45324;-79
2022/03/17 10:53:30;;;;;;;;;7.00;7.00;;;;;10.58;100.00;102702.16;4976790;28;45781;-77
2022/03/17 10:56:12;;;;;;;;;7.67;6.00;;;;;10.48;100.00;102693.44;4976018;28;45457;-77
2022/03/17 10:58:42;;;;;;;;;7.00;7.00;;;;;10.61;100.00;102708.41;4976532;28;45397;-78
2022/03/17 11:01:10;;;;;;;;;11.00;10.50;;;;;10.32;100.00;102651.44;4976473;28;45399;-78
2022/03/17 11:03:35;;;;;;;;;8.67;7.00;;;;;10.29;100.00;102649.72;4975325;28;45453;-78
2022/03/17 11:06:03;;;;;;;;;10.67;8.33;;;;;10.70;100.00;102704.47;4976323;28;45271;-78
2022/03/17 11:08:31;;;;;;;;;10.00;8.50;;;;;10.70;100.00;102725.34;4961554;28;45492;-78
2022/03/17 11:10:57;;;;;;;;;9.67;8.67;;;;;10.38;100.00;102671.13;4957373;28;45375;-79
2022/03/17 11:13:22;;;;;;;;;9.50;8.50;;;;;10.65;100.00;102706.47;4956527;28;45409;-80
2022/03/17 11:15:57;;;;;;;;;8.67;8.67;;;;;10.72;100.00;102731.59;4956326;28;45526;-79
2022/03/17 11:18:24;;;;;;;;;8.50;8.50;;;;;10.70;100.00;102728.06;4956783;28;45379;-78
2022/03/17 11:21:14;;;;;;;;;11.67;9.00;;;;;10.59;100.00;102707.56;4956244;28;45331;-79